sensor_id;sensor_type;location;lat;lon;timestamp;P1;durP1;ratioP1;P2;durP2;ratioP2
61015;SDS011;46902;52.920;6.536;2023-07-29T00:00:47;11.50;;;7.20;;
61015;SDS011;46902;52.920;6.536;2023-07-29T00:03:12;10.35;;;7.20;;
61015;SDS011;46902;52.920;6.536;2023-07-29T00:05:38;11.45;;;7.43;;
61015;SDS011;46902;52.920;6.536;2023-07-29T00:08:04;8.43;;;7.22;;
61015;SDS011;46902;52.920;6.536;2023-07-29T00:10:35;9.27;;;7.03;;
61015;SDS011;46902;52.920;6.536;2023-07-29T00:13:02;9.52;;;7.82;;
61015;SDS011;46902;52.920;6.536;2023-07-29T00:15:28;9.57;;;7.55;;
61015;SDS011;46902;52.920;6.536;2023-07-29T00:17:53;10.40;;;7.60;;
61015;SDS011;46902;52.920;6.536;2023-07-29T00:20:19;9.00;;;8.10;;
61015;SDS011;46902;52.920;6.536;2023-07-29T00:22:44;11.68;;;8.10;;
61015;SDS011;46902;52.920;6.536;2023-07-29T00:25:10;8.23;;;7.32;;
61015;SDS011;46902;52.920;6.536;2023-07-29T00:27:36;10.98;;;7.60;;
61015;SDS011;46902;52.920;6.536;2023-07-29T00:30:01;10.60;;;7.68;;
61015;SDS011;46902;52.920;6.536;2023-07-29T00:32:29;12.40;;;7.95;;
61015;SDS011;46902;52.920;6.536;2023-07-29T00:34:55;9.70;;;8.25;;
61015;SDS011;46902;52.920;6.536;2023-07-29T00:37:21;10.13;;;7.68;;
61015;SDS011;46902;52.920;6.536;2023-07-29T00:39:47;9.68;;;8.52;;
61015;SDS011;46902;52.920;6.536;2023-07-29T00:42:12;11.07;;;7.75;;
61015;SDS011;46902;52.920;6.536;2023-07-29T00:44:38;8.30;;;6.97;;
61015;SDS011;46902;52.920;6.536;2023-07-29T00:47:04;9.63;;;7.28;;
61015;SDS011;46902;52.920;6.536;2023-07-29T00:49:30;8.52;;;7.15;;
61015;SDS011;46902;52.920;6.536;2023-07-29T00:51:57;11.63;;;6.97;;
61015;SDS011;46902;52.920;6.536;2023-07-29T00:54:23;10.20;;;7.05;;
61015;SDS011;46902;52.920;6.536;2023-07-29T00:56:48;10.07;;;6.85;;
61015;SDS011;46902;52.920;6.536;2023-07-29T00:59:14;8.27;;;6.63;;
61015;SDS011;46902;52.920;6.536;2023-07-29T01:01:40;7.95;;;6.40;;
61015;SDS011;46902;52.920;6.536;2023-07-29T01:04:06;10.52;;;6.90;;
61015;SDS011;46902;52.920;6.536;2023-07-29T01:09:33;9.15;;;7.35;;
61015;SDS011;46902;52.920;6.536;2023-07-29T01:12:36;7.32;;;6.47;;
61015;SDS011;46902;52.920;6.536;2023-07-29T01:17:55;7.72;;;6.60;;
61015;SDS011;46902;52.920;6.536;2023-07-29T01:20:34;11.32;;;7.40;;
61015;SDS011;46902;52.920;6.536;2023-07-29T01:23:03;7.95;;;6.47;;
61015;SDS011;46902;52.920;6.536;2023-07-29T01:25:29;12.05;;;6.68;;
61015;SDS011;46902;52.920;6.536;2023-07-29T01:27:55;8.32;;;6.97;;
61015;SDS011;46902;52.920;6.536;2023-07-29T01:30:22;9.73;;;6.82;;
61015;SDS011;46902;52.920;6.536;2023-07-29T01:33:00;9.52;;;7.00;;
61015;SDS011;46902;52.920;6.536;2023-07-29T01:35:43;11.52;;;7.32;;
61015;SDS011;46902;52.920;6.536;2023-07-29T01:38:29;8.02;;;6.15;;
61015;SDS011;46902;52.920;6.536;2023-07-29T01:41:03;9.88;;;6.90;;
61015;SDS011;46902;52.920;6.536;2023-07-29T01:43:31;10.40;;;6.97;;
61015;SDS011;46902;52.920;6.536;2023-07-29T01:45:57;10.57;;;7.50;;
61015;SDS011;46902;52.920;6.536;2023-07-29T01:48:23;9.73;;;7.50;;
61015;SDS011;46902;52.920;6.536;2023-07-29T01:50:49;9.45;;;6.82;;
61015;SDS011;46902;52.920;6.536;2023-07-29T01:53:15;10.40;;;7.25;;
61015;SDS011;46902;52.920;6.536;2023-07-29T01:55:41;9.13;;;7.63;;
61015;SDS011;46902;52.920;6.536;2023-07-29T01:58:07;9.68;;;7.88;;
61015;SDS011;46902;52.920;6.536;2023-07-29T02:00:32;8.40;;;7.35;;
61015;SDS011;46902;52.920;6.536;2023-07-29T02:02:58;9.00;;;6.97;;
61015;SDS011;46902;52.920;6.536;2023-07-29T02:05:23;9.88;;;7.13;;
61015;SDS011;46902;52.920;6.536;2023-07-29T02:07:49;10.20;;;7.65;;
61015;SDS011;46902;52.920;6.536;2023-07-29T02:10:15;8.05;;;7.25;;
61015;SDS011;46902;52.920;6.536;2023-07-29T02:12:40;8.32;;;6.93;;
61015;SDS011;46902;52.920;6.536;2023-07-29T02:15:06;10.02;;;7.45;;
61015;SDS011;46902;52.920;6.536;2023-07-29T02:17:32;7.45;;;6.28;;
61015;SDS011;46902;52.920;6.536;2023-07-29T02:19:58;8.50;;;7.28;;
61015;SDS011;46902;52.920;6.536;2023-07-29T02:22:24;10.70;;;6.75;;
61015;SDS011;46902;52.920;6.536;2023-07-29T02:24:50;7.78;;;6.97;;
61015;SDS011;46902;52.920;6.536;2023-07-29T02:27:15;9.70;;;7.38;;
61015;SDS011;46902;52.920;6.536;2023-07-29T02:29:41;7.82;;;6.38;;
61015;SDS011;46902;52.920;6.536;2023-07-29T02:32:06;9.85;;;7.47;;
61015;SDS011;46902;52.920;6.536;2023-07-29T02:34:32;9.77;;;6.97;;
61015;SDS011;46902;52.920;6.536;2023-07-29T02:36:57;8.98;;;7.07;;
61015;SDS011;46902;52.920;6.536;2023-07-29T02:39:23;8.13;;;6.95;;
61015;SDS011;46902;52.920;6.536;2023-07-29T02:41:49;10.15;;;6.93;;
61015;SDS011;46902;52.920;6.536;2023-07-29T02:44:15;10.02;;;6.60;;
61015;SDS011;46902;52.920;6.536;2023-07-29T02:46:41;8.70;;;6.88;;
61015;SDS011;46902;52.920;6.536;2023-07-29T02:49:06;9.63;;;6.72;;
61015;SDS011;46902;52.920;6.536;2023-07-29T02:51:32;10.32;;;6.95;;
61015;SDS011;46902;52.920;6.536;2023-07-29T02:53:58;8.55;;;6.43;;
61015;SDS011;46902;52.920;6.536;2023-07-29T02:56:23;12.80;;;7.20;;
61015;SDS011;46902;52.920;6.536;2023-07-29T02:58:49;8.82;;;6.25;;
61015;SDS011;46902;52.920;6.536;2023-07-29T03:01:16;8.07;;;6.22;;
61015;SDS011;46902;52.920;6.536;2023-07-29T03:03:42;11.05;;;6.50;;
61015;SDS011;46902;52.920;6.536;2023-07-29T03:06:08;9.18;;;6.57;;
61015;SDS011;46902;52.920;6.536;2023-07-29T03:08:35;10.50;;;6.32;;
61015;SDS011;46902;52.920;6.536;2023-07-29T03:11:05;9.07;;;5.80;;
61015;SDS011;46902;52.920;6.536;2023-07-29T03:13:32;8.32;;;6.20;;
61015;SDS011;46902;52.920;6.536;2023-07-29T03:16:07;10.15;;;5.40;;
61015;SDS011;46902;52.920;6.536;2023-07-29T03:18:34;8.15;;;6.38;;
61015;SDS011;46902;52.920;6.536;2023-07-29T03:21:01;8.32;;;6.22;;
61015;SDS011;46902;52.920;6.536;2023-07-29T03:23:30;6.60;;;5.65;;
61015;SDS011;46902;52.920;6.536;2023-07-29T03:25:57;7.45;;;5.57;;
61015;SDS011;46902;52.920;6.536;2023-07-29T03:28:24;7.88;;;5.68;;
61015;SDS011;46902;52.920;6.536;2023-07-29T03:30:52;6.03;;;5.40;;
61015;SDS011;46902;52.920;6.536;2023-07-29T03:33:18;6.57;;;5.55;;
61015;SDS011;46902;52.920;6.536;2023-07-29T03:35:44;8.35;;;5.30;;
61015;SDS011;46902;52.920;6.536;2023-07-29T03:38:10;9.13;;;5.70;;
61015;SDS011;46902;52.920;6.536;2023-07-29T03:40:36;8.38;;;6.15;;
61015;SDS011;46902;52.920;6.536;2023-07-29T03:43:03;7.35;;;5.30;;
61015;SDS011;46902;52.920;6.536;2023-07-29T03:45:29;6.50;;;5.25;;
61015;SDS011;46902;52.920;6.536;2023-07-29T03:47:54;7.28;;;5.10;;
61015;SDS011;46902;52.920;6.536;2023-07-29T03:50:20;8.38;;;5.40;;
61015;SDS011;46902;52.920;6.536;2023-07-29T03:52:46;6.65;;;5.20;;
61015;SDS011;46902;52.920;6.536;2023-07-29T03:55:11;10.05;;;5.00;;
61015;SDS011;46902;52.920;6.536;2023-07-29T03:57:37;6.78;;;4.43;;
61015;SDS011;46902;52.920;6.536;2023-07-29T04:00:03;7.35;;;5.25;;
61015;SDS011;46902;52.920;6.536;2023-07-29T04:02:29;10.18;;;5.10;;
61015;SDS011;46902;52.920;6.536;2023-07-29T04:04:55;6.88;;;4.95;;
61015;SDS011;46902;52.920;6.536;2023-07-29T04:07:21;8.85;;;4.93;;
61015;SDS011;46902;52.920;6.536;2023-07-29T04:09:46;8.35;;;4.97;;
61015;SDS011;46902;52.920;6.536;2023-07-29T04:12:12;7.28;;;4.78;;
61015;SDS011;46902;52.920;6.536;2023-07-29T04:14:37;6.65;;;4.13;;
61015;SDS011;46902;52.920;6.536;2023-07-29T04:17:03;5.85;;;4.60;;
61015;SDS011;46902;52.920;6.536;2023-07-29T04:19:29;9.48;;;4.32;;
61015;SDS011;46902;52.920;6.536;2023-07-29T04:21:54;7.40;;;4.30;;
61015;SDS011;46902;52.920;6.536;2023-07-29T04:24:20;6.13;;;4.20;;
61015;SDS011;46902;52.920;6.536;2023-07-29T04:26:48;5.10;;;4.15;;
61015;SDS011;46902;52.920;6.536;2023-07-29T04:29:14;7.35;;;4.35;;
61015;SDS011;46902;52.920;6.536;2023-07-29T04:31:39;5.88;;;3.95;;
61015;SDS011;46902;52.920;6.536;2023-07-29T04:34:05;6.05;;;4.40;;
61015;SDS011;46902;52.920;6.536;2023-07-29T04:36:31;7.97;;;4.03;;
61015;SDS011;46902;52.920;6.536;2023-07-29T04:38:56;5.90;;;3.85;;
61015;SDS011;46902;52.920;6.536;2023-07-29T04:41:23;5.57;;;3.70;;
61015;SDS011;46902;52.920;6.536;2023-07-29T04:43:49;5.72;;;3.88;;
61015;SDS011;46902;52.920;6.536;2023-07-29T04:46:14;5.50;;;3.50;;
61015;SDS011;46902;52.920;6.536;2023-07-29T04:48:40;5.88;;;3.75;;
61015;SDS011;46902;52.920;6.536;2023-07-29T04:51:06;5.32;;;3.42;;
61015;SDS011;46902;52.920;6.536;2023-07-29T04:53:32;5.22;;;2.85;;
61015;SDS011;46902;52.920;6.536;2023-07-29T04:55:57;9.90;;;3.20;;
61015;SDS011;46902;52.920;6.536;2023-07-29T04:58:23;6.10;;;3.30;;
61015;SDS011;46902;52.920;6.536;2023-07-29T05:00:49;5.90;;;3.17;;
61015;SDS011;46902;52.920;6.536;2023-07-29T05:03:14;4.05;;;3.00;;
61015;SDS011;46902;52.920;6.536;2023-07-29T05:05:40;4.45;;;3.03;;
61015;SDS011;46902;52.920;6.536;2023-07-29T05:08:06;5.78;;;2.85;;
61015;SDS011;46902;52.920;6.536;2023-07-29T05:10:31;5.53;;;2.85;;
61015;SDS011;46902;52.920;6.536;2023-07-29T05:12:57;7.95;;;2.90;;
61015;SDS011;46902;52.920;6.536;2023-07-29T05:15:22;4.82;;;2.72;;
61015;SDS011;46902;52.920;6.536;2023-07-29T05:17:48;6.13;;;2.90;;
61015;SDS011;46902;52.920;6.536;2023-07-29T05:20:13;7.20;;;3.00;;
61015;SDS011;46902;52.920;6.536;2023-07-29T05:22:39;7.40;;;2.72;;
61015;SDS011;46902;52.920;6.536;2023-07-29T05:25:05;3.72;;;2.78;;
61015;SDS011;46902;52.920;6.536;2023-07-29T05:27:31;5.38;;;2.72;;
61015;SDS011;46902;52.920;6.536;2023-07-29T05:29:56;5.70;;;2.40;;
61015;SDS011;46902;52.920;6.536;2023-07-29T05:32:22;3.97;;;2.40;;
61015;SDS011;46902;52.920;6.536;2023-07-29T05:34:47;6.05;;;2.63;;
61015;SDS011;46902;52.920;6.536;2023-07-29T05:37:13;5.97;;;2.72;;
61015;SDS011;46902;52.920;6.536;2023-07-29T05:39:39;3.38;;;2.33;;
61015;SDS011;46902;52.920;6.536;2023-07-29T05:42:04;7.57;;;2.60;;
61015;SDS011;46902;52.920;6.536;2023-07-29T05:44:30;7.05;;;2.83;;
61015;SDS011;46902;52.920;6.536;2023-07-29T05:46:56;4.95;;;3.08;;
61015;SDS011;46902;52.920;6.536;2023-07-29T05:49:22;4.10;;;2.33;;
61015;SDS011;46902;52.920;6.536;2023-07-29T05:51:48;4.55;;;2.53;;
61015;SDS011;46902;52.920;6.536;2023-07-29T05:54:13;6.25;;;2.80;;
61015;SDS011;46902;52.920;6.536;2023-07-29T05:56:39;6.68;;;2.83;;
61015;SDS011;46902;52.920;6.536;2023-07-29T05:59:04;5.97;;;3.33;;
61015;SDS011;46902;52.920;6.536;2023-07-29T06:01:30;9.68;;;3.47;;
61015;SDS011;46902;52.920;6.536;2023-07-29T06:03:56;5.07;;;2.97;;
61015;SDS011;46902;52.920;6.536;2023-07-29T06:06:21;9.38;;;3.50;;
61015;SDS011;46902;52.920;6.536;2023-07-29T06:08:48;9.00;;;3.67;;
61015;SDS011;46902;52.920;6.536;2023-07-29T06:11:15;5.82;;;3.40;;
61015;SDS011;46902;52.920;6.536;2023-07-29T06:13:40;13.73;;;4.45;;
61015;SDS011;46902;52.920;6.536;2023-07-29T06:16:06;7.82;;;4.05;;
61015;SDS011;46902;52.920;6.536;2023-07-29T06:18:31;10.05;;;4.20;;
61015;SDS011;46902;52.920;6.536;2023-07-29T06:20:57;10.40;;;4.10;;
61015;SDS011;46902;52.920;6.536;2023-07-29T06:23:22;6.65;;;3.78;;
61015;SDS011;46902;52.920;6.536;2023-07-29T06:25:48;10.27;;;4.03;;
61015;SDS011;46902;52.920;6.536;2023-07-29T06:28:14;8.18;;;4.35;;
61015;SDS011;46902;52.920;6.536;2023-07-29T06:30:39;10.38;;;4.53;;
61015;SDS011;46902;52.920;6.536;2023-07-29T06:33:05;11.85;;;3.83;;
61015;SDS011;46902;52.920;6.536;2023-07-29T06:35:31;8.68;;;4.35;;
61015;SDS011;46902;52.920;6.536;2023-07-29T06:37:56;8.07;;;4.10;;
61015;SDS011;46902;52.920;6.536;2023-07-29T06:40:22;8.57;;;4.03;;
61015;SDS011;46902;52.920;6.536;2023-07-29T06:42:48;7.70;;;3.92;;
61015;SDS011;46902;52.920;6.536;2023-07-29T06:45:13;11.10;;;4.20;;
61015;SDS011;46902;52.920;6.536;2023-07-29T06:47:40;12.52;;;4.20;;
61015;SDS011;46902;52.920;6.536;2023-07-29T06:50:06;11.93;;;4.07;;
61015;SDS011;46902;52.920;6.536;2023-07-29T06:52:32;10.57;;;4.15;;
61015;SDS011;46902;52.920;6.536;2023-07-29T06:54:58;9.25;;;4.45;;
61015;SDS011;46902;52.920;6.536;2023-07-29T06:57:23;11.20;;;4.68;;
61015;SDS011;46902;52.920;6.536;2023-07-29T06:59:49;13.25;;;5.35;;
61015;SDS011;46902;52.920;6.536;2023-07-29T07:02:14;6.97;;;4.28;;
61015;SDS011;46902;52.920;6.536;2023-07-29T07:04:40;11.63;;;4.65;;
61015;SDS011;46902;52.920;6.536;2023-07-29T07:07:06;12.23;;;5.13;;
61015;SDS011;46902;52.920;6.536;2023-07-29T07:09:31;10.05;;;4.82;;
61015;SDS011;46902;52.920;6.536;2023-07-29T07:11:57;10.98;;;4.78;;
61015;SDS011;46902;52.920;6.536;2023-07-29T07:14:22;11.25;;;5.30;;
61015;SDS011;46902;52.920;6.536;2023-07-29T07:16:48;10.77;;;4.80;;
61015;SDS011;46902;52.920;6.536;2023-07-29T07:19:14;9.50;;;5.05;;
61015;SDS011;46902;52.920;6.536;2023-07-29T07:21:39;8.93;;;4.95;;
61015;SDS011;46902;52.920;6.536;2023-07-29T07:24:05;10.93;;;5.10;;
61015;SDS011;46902;52.920;6.536;2023-07-29T07:26:31;9.13;;;5.00;;
61015;SDS011;46902;52.920;6.536;2023-07-29T07:28:56;11.13;;;5.13;;
61015;SDS011;46902;52.920;6.536;2023-07-29T07:31:22;8.95;;;4.90;;
61015;SDS011;46902;52.920;6.536;2023-07-29T07:33:48;9.45;;;4.80;;
61015;SDS011;46902;52.920;6.536;2023-07-29T07:36:13;9.90;;;4.88;;
61015;SDS011;46902;52.920;6.536;2023-07-29T07:38:40;11.65;;;4.82;;
61015;SDS011;46902;52.920;6.536;2023-07-29T07:41:06;15.80;;;4.35;;
61015;SDS011;46902;52.920;6.536;2023-07-29T07:43:32;8.95;;;4.55;;
61015;SDS011;46902;52.920;6.536;2023-07-29T07:45:58;10.40;;;5.28;;
61015;SDS011;46902;52.920;6.536;2023-07-29T07:48:24;7.07;;;4.07;;
61015;SDS011;46902;52.920;6.536;2023-07-29T07:50:50;10.13;;;5.05;;
61015;SDS011;46902;52.920;6.536;2023-07-29T07:53:16;9.25;;;4.22;;
61015;SDS011;46902;52.920;6.536;2023-07-29T07:55:41;9.63;;;4.35;;
61015;SDS011;46902;52.920;6.536;2023-07-29T07:58:07;9.25;;;4.68;;
61015;SDS011;46902;52.920;6.536;2023-07-29T08:00:32;8.48;;;4.30;;
61015;SDS011;46902;52.920;6.536;2023-07-29T08:02:58;11.57;;;4.43;;
61015;SDS011;46902;52.920;6.536;2023-07-29T08:05:24;7.97;;;4.30;;
61015;SDS011;46902;52.920;6.536;2023-07-29T08:07:49;8.43;;;4.18;;
61015;SDS011;46902;52.920;6.536;2023-07-29T08:10:15;6.13;;;4.00;;
61015;SDS011;46902;52.920;6.536;2023-07-29T08:12:40;9.95;;;4.18;;
61015;SDS011;46902;52.920;6.536;2023-07-29T08:15:06;9.25;;;3.65;;
61015;SDS011;46902;52.920;6.536;2023-07-29T08:17:32;8.15;;;3.72;;
61015;SDS011;46902;52.920;6.536;2023-07-29T08:19:57;7.47;;;3.30;;
61015;SDS011;46902;52.920;6.536;2023-07-29T08:22:23;11.43;;;3.40;;
61015;SDS011;46902;52.920;6.536;2023-07-29T08:24:48;10.40;;;4.15;;
61015;SDS011;46902;52.920;6.536;2023-07-29T08:27:14;9.32;;;4.05;;
61015;SDS011;46902;52.920;6.536;2023-07-29T08:29:40;5.90;;;2.92;;
61015;SDS011;46902;52.920;6.536;2023-07-29T08:32:05;13.02;;;3.22;;
61015;SDS011;46902;52.920;6.536;2023-07-29T08:34:31;10.63;;;3.75;;
61015;SDS011;46902;52.920;6.536;2023-07-29T08:36:57;8.10;;;3.30;;
61015;SDS011;46902;52.920;6.536;2023-07-29T08:39:22;5.85;;;2.85;;
61015;SDS011;46902;52.920;6.536;2023-07-29T08:41:57;8.05;;;2.90;;
61015;SDS011;46902;52.920;6.536;2023-07-29T08:44:30;6.60;;;2.75;;
61015;SDS011;46902;52.920;6.536;2023-07-29T08:47:00;5.53;;;2.30;;
61015;SDS011;46902;52.920;6.536;2023-07-29T08:49:26;4.32;;;2.17;;
61015;SDS011;46902;52.920;6.536;2023-07-29T08:51:53;7.18;;;2.67;;
61015;SDS011;46902;52.920;6.536;2023-07-29T08:54:19;7.57;;;2.45;;
61015;SDS011;46902;52.920;6.536;2023-07-29T08:56:45;7.63;;;2.45;;
61015;SDS011;46902;52.920;6.536;2023-07-29T08:59:11;6.60;;;2.25;;
61015;SDS011;46902;52.920;6.536;2023-07-29T09:01:38;7.30;;;2.72;;
61015;SDS011;46902;52.920;6.536;2023-07-29T09:04:04;5.20;;;2.50;;
61015;SDS011;46902;52.920;6.536;2023-07-29T09:06:30;6.93;;;2.65;;
61015;SDS011;46902;52.920;6.536;2023-07-29T09:08:57;7.15;;;2.60;;
61015;SDS011;46902;52.920;6.536;2023-07-29T09:11:24;6.97;;;2.30;;
61015;SDS011;46902;52.920;6.536;2023-07-29T09:13:50;10.00;;;2.67;;
61015;SDS011;46902;52.920;6.536;2023-07-29T09:16:16;6.95;;;2.20;;
61015;SDS011;46902;52.920;6.536;2023-07-29T09:18:42;4.03;;;1.60;;
61015;SDS011;46902;52.920;6.536;2023-07-29T09:21:07;6.20;;;1.83;;
61015;SDS011;46902;52.920;6.536;2023-07-29T09:23:43;7.78;;;2.10;;
61015;SDS011;46902;52.920;6.536;2023-07-29T09:26:10;5.07;;;2.17;;
61015;SDS011;46902;52.920;6.536;2023-07-29T09:28:39;6.25;;;2.88;;
61015;SDS011;46902;52.920;6.536;2023-07-29T09:31:06;4.63;;;2.40;;
61015;SDS011;46902;52.920;6.536;2023-07-29T09:33:35;6.22;;;2.30;;
61015;SDS011;46902;52.920;6.536;2023-07-29T09:36:10;6.22;;;1.92;;
61015;SDS011;46902;52.920;6.536;2023-07-29T09:38:36;8.63;;;2.60;;
61015;SDS011;46902;52.920;6.536;2023-07-29T09:41:02;6.75;;;2.30;;
61015;SDS011;46902;52.920;6.536;2023-07-29T09:43:31;5.10;;;2.08;;
61015;SDS011;46902;52.920;6.536;2023-07-29T09:46:02;5.80;;;2.38;;
61015;SDS011;46902;52.920;6.536;2023-07-29T09:48:32;4.85;;;1.40;;
61015;SDS011;46902;52.920;6.536;2023-07-29T09:51:11;6.85;;;2.30;;
61015;SDS011;46902;52.920;6.536;2023-07-29T09:53:45;5.15;;;2.00;;
61015;SDS011;46902;52.920;6.536;2023-07-29T09:56:12;4.55;;;1.77;;
61015;SDS011;46902;52.920;6.536;2023-07-29T09:58:39;5.63;;;2.05;;
61015;SDS011;46902;52.920;6.536;2023-07-29T10:01:06;3.60;;;1.30;;
61015;SDS011;46902;52.920;6.536;2023-07-29T10:03:31;5.25;;;1.70;;
61015;SDS011;46902;52.920;6.536;2023-07-29T10:06:02;5.28;;;1.60;;
61015;SDS011;46902;52.920;6.536;2023-07-29T10:08:29;9.90;;;2.20;;
61015;SDS011;46902;52.920;6.536;2023-07-29T10:10:57;7.68;;;1.80;;
61015;SDS011;46902;52.920;6.536;2023-07-29T10:13:24;4.28;;;1.70;;
61015;SDS011;46902;52.920;6.536;2023-07-29T10:15:51;4.82;;;1.52;;
61015;SDS011;46902;52.920;6.536;2023-07-29T10:18:18;4.65;;;1.30;;
61015;SDS011;46902;52.920;6.536;2023-07-29T10:20:44;3.95;;;1.40;;
61015;SDS011;46902;52.920;6.536;2023-07-29T10:23:12;5.32;;;1.60;;
61015;SDS011;46902;52.920;6.536;2023-07-29T10:25:43;5.75;;;1.70;;
61015;SDS011;46902;52.920;6.536;2023-07-29T10:28:14;6.60;;;1.48;;
61015;SDS011;46902;52.920;6.536;2023-07-29T10:30:41;6.95;;;1.50;;
61015;SDS011;46902;52.920;6.536;2023-07-29T10:33:07;6.68;;;1.75;;
61015;SDS011;46902;52.920;6.536;2023-07-29T10:35:33;6.60;;;2.00;;
61015;SDS011;46902;52.920;6.536;2023-07-29T10:38:00;6.35;;;1.50;;
61015;SDS011;46902;52.920;6.536;2023-07-29T10:41:15;4.68;;;1.63;;
61015;SDS011;46902;52.920;6.536;2023-07-29T10:43:31;5.95;;;1.50;;
61015;SDS011;46902;52.920;6.536;2023-07-29T10:45:59;8.57;;;1.98;;
61015;SDS011;46902;52.920;6.536;2023-07-29T10:48:44;4.68;;;1.95;;
61015;SDS011;46902;52.920;6.536;2023-07-29T10:54:11;4.68;;;1.80;;
61015;SDS011;46902;52.920;6.536;2023-07-29T10:56:41;3.70;;;1.48;;
61015;SDS011;46902;52.920;6.536;2023-07-29T11:01:56;7.00;;;1.55;;
61015;SDS011;46902;52.920;6.536;2023-07-29T11:04:23;7.47;;;1.40;;
61015;SDS011;46902;52.920;6.536;2023-07-29T11:07:34;3.53;;;1.30;;
61015;SDS011;46902;52.920;6.536;2023-07-29T11:09:54;3.90;;;1.50;;
61015;SDS011;46902;52.920;6.536;2023-07-29T11:15:26;7.47;;;1.50;;
61015;SDS011;46902;52.920;6.536;2023-07-29T11:17:59;4.82;;;1.70;;
61015;SDS011;46902;52.920;6.536;2023-07-29T11:20:29;5.78;;;1.95;;
61015;SDS011;46902;52.920;6.536;2023-07-29T11:22:57;3.63;;;1.83;;
61015;SDS011;46902;52.920;6.536;2023-07-29T11:25:25;4.28;;;1.80;;
61015;SDS011;46902;52.920;6.536;2023-07-29T11:27:54;5.25;;;1.98;;
61015;SDS011;46902;52.920;6.536;2023-07-29T11:30:21;5.13;;;2.35;;
61015;SDS011;46902;52.920;6.536;2023-07-29T11:32:48;6.28;;;2.30;;
61015;SDS011;46902;52.920;6.536;2023-07-29T11:35:14;7.70;;;3.08;;
61015;SDS011;46902;52.920;6.536;2023-07-29T11:37:43;5.72;;;2.50;;
61015;SDS011;46902;52.920;6.536;2023-07-29T11:40:15;5.50;;;2.42;;
61015;SDS011;46902;52.920;6.536;2023-07-29T11:42:43;5.82;;;2.17;;
61015;SDS011;46902;52.920;6.536;2023-07-29T11:45:10;4.80;;;2.40;;
61015;SDS011;46902;52.920;6.536;2023-07-29T11:47:37;7.72;;;2.42;;
61015;SDS011;46902;52.920;6.536;2023-07-29T11:50:10;7.88;;;3.08;;
61015;SDS011;46902;52.920;6.536;2023-07-29T11:52:41;9.63;;;2.55;;
61015;SDS011;46902;52.920;6.536;2023-07-29T11:55:08;6.38;;;2.75;;
61015;SDS011;46902;52.920;6.536;2023-07-29T11:57:35;8.35;;;2.47;;
61015;SDS011;46902;52.920;6.536;2023-07-29T12:00:02;6.78;;;2.00;;
61015;SDS011;46902;52.920;6.536;2023-07-29T12:02:31;5.57;;;2.20;;
61015;SDS011;46902;52.920;6.536;2023-07-29T12:04:58;5.18;;;2.00;;
61015;SDS011;46902;52.920;6.536;2023-07-29T12:07:24;4.85;;;1.90;;
61015;SDS011;46902;52.920;6.536;2023-07-29T12:09:49;4.88;;;1.90;;
61015;SDS011;46902;52.920;6.536;2023-07-29T12:12:15;5.10;;;2.05;;
61015;SDS011;46902;52.920;6.536;2023-07-29T12:14:47;5.32;;;2.30;;
61015;SDS011;46902;52.920;6.536;2023-07-29T12:17:14;6.32;;;2.42;;
61015;SDS011;46902;52.920;6.536;2023-07-29T12:19:40;6.18;;;2.08;;
61015;SDS011;46902;52.920;6.536;2023-07-29T12:22:07;4.65;;;1.83;;
61015;SDS011;46902;52.920;6.536;2023-07-29T12:24:35;5.70;;;2.17;;
61015;SDS011;46902;52.920;6.536;2023-07-29T12:27:05;5.13;;;2.10;;
61015;SDS011;46902;52.920;6.536;2023-07-29T12:29:39;4.07;;;2.03;;
61015;SDS011;46902;52.920;6.536;2023-07-29T12:32:06;6.72;;;2.28;;
61015;SDS011;46902;52.920;6.536;2023-07-29T12:34:31;6.45;;;2.10;;
61015;SDS011;46902;52.920;6.536;2023-07-29T12:36:58;5.50;;;2.20;;
61015;SDS011;46902;52.920;6.536;2023-07-29T12:39:28;4.50;;;2.00;;
61015;SDS011;46902;52.920;6.536;2023-07-29T12:41:56;3.88;;;1.80;;
61015;SDS011;46902;52.920;6.536;2023-07-29T12:44:24;5.03;;;1.90;;
61015;SDS011;46902;52.920;6.536;2023-07-29T12:47:03;4.00;;;1.52;;
61015;SDS011;46902;52.920;6.536;2023-07-29T12:49:30;7.97;;;2.08;;
61015;SDS011;46902;52.920;6.536;2023-07-29T12:51:56;5.18;;;1.90;;
61015;SDS011;46902;52.920;6.536;2023-07-29T12:54:23;6.10;;;1.73;;
61015;SDS011;46902;52.920;6.536;2023-07-29T12:56:49;4.60;;;1.75;;
61015;SDS011;46902;52.920;6.536;2023-07-29T12:59:15;2.88;;;1.20;;
61015;SDS011;46902;52.920;6.536;2023-07-29T13:01:41;3.25;;;1.42;;
61015;SDS011;46902;52.920;6.536;2023-07-29T13:04:06;5.28;;;1.70;;
61015;SDS011;46902;52.920;6.536;2023-07-29T13:06:32;4.18;;;1.40;;
61015;SDS011;46902;52.920;6.536;2023-07-29T13:08:58;4.55;;;1.42;;
61015;SDS011;46902;52.920;6.536;2023-07-29T13:11:23;2.53;;;1.05;;
61015;SDS011;46902;52.920;6.536;2023-07-29T13:13:49;5.05;;;1.08;;
61015;SDS011;46902;52.920;6.536;2023-07-29T13:16:15;6.65;;;1.45;;
61015;SDS011;46902;52.920;6.536;2023-07-29T13:18:40;3.03;;;0.90;;
61015;SDS011;46902;52.920;6.536;2023-07-29T13:21:08;5.00;;;1.10;;
61015;SDS011;46902;52.920;6.536;2023-07-29T13:23:33;3.45;;;1.00;;
61015;SDS011;46902;52.920;6.536;2023-07-29T13:25:59;4.00;;;1.20;;
61015;SDS011;46902;52.920;6.536;2023-07-29T13:28:24;4.43;;;1.20;;
61015;SDS011;46902;52.920;6.536;2023-07-29T13:30:50;2.75;;;1.00;;
61015;SDS011;46902;52.920;6.536;2023-07-29T13:33:16;2.45;;;0.90;;
61015;SDS011;46902;52.920;6.536;2023-07-29T13:35:41;6.75;;;1.95;;
61015;SDS011;46902;52.920;6.536;2023-07-29T13:38:07;3.45;;;0.80;;
61015;SDS011;46902;52.920;6.536;2023-07-29T13:40:33;2.05;;;0.60;;
61015;SDS011;46902;52.920;6.536;2023-07-29T13:42:59;3.17;;;0.63;;
61015;SDS011;46902;52.920;6.536;2023-07-29T13:45:25;3.95;;;0.73;;
61015;SDS011;46902;52.920;6.536;2023-07-29T13:47:50;4.03;;;0.75;;
61015;SDS011;46902;52.920;6.536;2023-07-29T13:50:16;5.80;;;1.00;;
61015;SDS011;46902;52.920;6.536;2023-07-29T13:52:42;3.53;;;0.68;;
61015;SDS011;46902;52.920;6.536;2023-07-29T13:55:08;3.72;;;0.80;;
61015;SDS011;46902;52.920;6.536;2023-07-29T13:57:35;4.30;;;1.00;;
61015;SDS011;46902;52.920;6.536;2023-07-29T14:00:01;2.20;;;0.70;;
61015;SDS011;46902;52.920;6.536;2023-07-29T14:02:26;1.63;;;0.65;;
61015;SDS011;46902;52.920;6.536;2023-07-29T14:04:52;2.08;;;0.63;;
61015;SDS011;46902;52.920;6.536;2023-07-29T14:07:18;2.42;;;0.90;;
61015;SDS011;46902;52.920;6.536;2023-07-29T14:09:44;2.88;;;0.70;;
61015;SDS011;46902;52.920;6.536;2023-07-29T14:12:09;1.60;;;0.60;;
61015;SDS011;46902;52.920;6.536;2023-07-29T14:14:40;1.20;;;0.57;;
61015;SDS011;46902;52.920;6.536;2023-07-29T14:17:05;2.40;;;0.80;;
61015;SDS011;46902;52.920;6.536;2023-07-29T14:19:32;3.80;;;1.00;;
61015;SDS011;46902;52.920;6.536;2023-07-29T14:21:58;2.42;;;0.75;;
61015;SDS011;46902;52.920;6.536;2023-07-29T14:24:24;4.10;;;1.20;;
61015;SDS011;46902;52.920;6.536;2023-07-29T14:26:49;4.80;;;1.02;;
61015;SDS011;46902;52.920;6.536;2023-07-29T14:29:15;1.88;;;1.00;;
61015;SDS011;46902;52.920;6.536;2023-07-29T14:31:40;2.78;;;1.17;;
61015;SDS011;46902;52.920;6.536;2023-07-29T14:34:06;15.18;;;2.45;;
61015;SDS011;46902;52.920;6.536;2023-07-29T14:36:31;3.15;;;0.85;;
61015;SDS011;46902;52.920;6.536;2023-07-29T14:38:57;4.40;;;1.00;;
61015;SDS011;46902;52.920;6.536;2023-07-29T14:41:23;4.30;;;1.08;;
61015;SDS011;46902;52.920;6.536;2023-07-29T14:43:49;2.90;;;1.08;;
61015;SDS011;46902;52.920;6.536;2023-07-29T14:46:14;3.83;;;1.17;;
61015;SDS011;46902;52.920;6.536;2023-07-29T14:48:40;3.25;;;1.00;;
61015;SDS011;46902;52.920;6.536;2023-07-29T14:51:05;5.07;;;1.20;;
61015;SDS011;46902;52.920;6.536;2023-07-29T14:53:31;4.05;;;1.00;;
61015;SDS011;46902;52.920;6.536;2023-07-29T14:55:56;6.38;;;1.25;;
61015;SDS011;46902;52.920;6.536;2023-07-29T14:58:22;2.83;;;1.00;;